Floresville, Texas
Current Conditions -  °F | °C
As of 5:53 PM on Tuesday 25 Nov 2014 (Local Time) from KSSF Reporting Station
Clear Clear  
Wind Chill: 59°   Ceiling: Unl
Heat Index: 59°   Visibility: 10mi
Dew Point: 30°   Wind: 7mph
Humidity: 33%   Direction: 230°SW
Pressure: 30.22"   Gusts: NA
Location:  29.13°N, 98.16°W
Report Text: KSSF 252353Z 23006KT 10SM CLR 15/M01 A3022 RMK AO2 SLP233 T01501011 10200 20150 55008
Loading
Personal Weather Stations






























Interactive Weather Map New forecast layout! Learn more

10-Day Weather Forecast

Advertisements
Track Severe Weather on mobile